createdAt,value
2023-05-13T00:00:40.513Z,15.70
2023-05-13T00:01:40.510Z,15.50
2023-05-13T00:02:40.530Z,16.80
2023-05-13T00:03:40.636Z,14.20
2023-05-13T00:04:40.471Z,16.10
2023-05-13T00:05:40.526Z,15.60
2023-05-13T00:06:40.843Z,15.60
2023-05-13T00:07:40.435Z,17.00
2023-05-13T00:08:40.421Z,14.70
2023-05-13T00:09:40.432Z,20.70
2023-05-13T00:10:40.400Z,11.80
2023-05-13T00:11:40.401Z,14.10
2023-05-13T00:12:40.384Z,14.10
2023-05-13T00:13:40.378Z,10.80
2023-05-13T00:14:40.371Z,14.80
2023-05-13T00:15:40.357Z,14.40
2023-05-13T00:16:40.370Z,14.80
2023-05-13T00:17:40.360Z,15.60
2023-05-13T00:18:40.419Z,15.00
2023-05-13T00:19:40.311Z,21.30
2023-05-13T00:20:40.311Z,18.60
2023-05-13T00:21:40.296Z,11.50
2023-05-13T00:22:40.265Z,13.90
2023-05-13T00:23:40.274Z,11.30
2023-05-13T00:24:40.245Z,13.90
2023-05-13T00:25:40.237Z,11.20
2023-05-13T00:26:40.215Z,11.00
2023-05-13T00:27:40.266Z,14.80
2023-05-13T00:28:40.223Z,12.00
2023-05-13T00:29:40.195Z,16.80
2023-05-13T00:30:40.186Z,13.50
2023-05-13T00:31:40.218Z,16.30
2023-05-13T00:32:40.212Z,10.70
2023-05-13T00:33:40.161Z,14.80
2023-05-13T00:34:40.137Z,14.10
2023-05-13T00:35:40.128Z,14.50
2023-05-13T00:36:40.126Z,9.40
2023-05-13T00:37:40.133Z,12.20
2023-05-13T00:38:40.107Z,14.70
2023-05-13T00:39:40.083Z,14.90
2023-05-13T00:40:40.075Z,14.80
2023-05-13T00:41:40.096Z,16.20
2023-05-13T00:42:40.067Z,12.90
2023-05-13T00:43:40.071Z,12.80
2023-05-13T00:44:40.034Z,12.70
2023-05-13T00:45:40.045Z,13.10
2023-05-13T00:46:40.030Z,12.20
2023-05-13T00:47:40.043Z,10.20
2023-05-13T00:48:40.006Z,16.50
2023-05-13T00:49:39.984Z,13.50
2023-05-13T00:50:39.966Z,11.30
2023-05-13T00:51:39.986Z,12.00
2023-05-13T00:52:39.956Z,13.50
2023-05-13T00:53:39.938Z,17.00
2023-05-13T00:54:39.927Z,13.40
2023-05-13T00:55:39.938Z,11.40
2023-05-13T00:56:39.926Z,10.40
2023-05-13T00:57:39.903Z,17.20
2023-05-13T00:58:39.885Z,17.70
2023-05-13T00:59:39.879Z,15.20
2023-05-13T01:00:39.889Z,12.50
2023-05-13T01:01:39.896Z,13.80
2023-05-13T01:02:39.916Z,16.00
2023-05-13T01:03:39.864Z,14.40
2023-05-13T01:04:39.828Z,16.00
2023-05-13T01:05:39.834Z,15.30
2023-05-13T01:06:39.801Z,13.20
2023-05-13T01:07:39.809Z,11.40
2023-05-13T01:08:39.777Z,17.60
2023-05-13T01:09:39.783Z,14.50
2023-05-13T01:10:39.766Z,15.20
2023-05-13T01:11:39.746Z,13.10
2023-05-13T01:12:39.721Z,12.20
2023-05-13T01:13:39.729Z,18.10
2023-05-13T01:14:39.733Z,11.40
2023-05-13T01:15:39.713Z,14.10
2023-05-13T01:16:39.726Z,15.20
2023-05-13T01:17:39.716Z,14.20
2023-05-13T01:18:39.710Z,15.60
2023-05-13T01:19:39.680Z,16.30
2023-05-13T01:20:39.642Z,12.60
2023-05-13T01:21:39.633Z,7.90
2023-05-13T01:22:39.625Z,19.20
2023-05-13T01:23:39.638Z,15.60
2023-05-13T01:24:39.692Z,11.00
2023-05-13T01:25:39.588Z,12.20
2023-05-13T01:26:39.582Z,14.00
2023-05-13T01:27:39.582Z,13.40
2023-05-13T01:28:39.576Z,10.40
2023-05-13T01:29:39.551Z,15.30
2023-05-13T01:30:39.545Z,15.20
2023-05-13T01:31:39.595Z,11.30
2023-05-13T01:32:39.544Z,11.90
2023-05-13T01:33:39.548Z,14.60
2023-05-13T01:34:39.497Z,17.40
2023-05-13T01:35:39.489Z,13.10
2023-05-13T01:36:39.491Z,12.10
2023-05-13T01:37:39.473Z,13.60
2023-05-13T01:38:39.461Z,15.50
2023-05-13T01:39:39.462Z,12.50
2023-05-13T01:40:39.711Z,12.30
2023-05-13T01:41:39.426Z,11.50
2023-05-13T01:42:39.423Z,13.40
2023-05-13T01:43:39.435Z,13.70
2023-05-13T01:44:39.404Z,13.00
2023-05-13T01:45:39.406Z,17.30
2023-05-13T01:46:39.440Z,15.80
2023-05-13T01:47:39.446Z,11.90
2023-05-13T01:48:39.344Z,16.30
2023-05-13T01:49:39.344Z,17.60
2023-05-13T01:50:39.325Z,13.90
2023-05-13T01:51:39.311Z,13.10
2023-05-13T01:52:39.333Z,13.70
2023-05-13T01:53:39.294Z,16.00
2023-05-13T01:54:39.282Z,12.30
2023-05-13T01:55:39.305Z,18.00
2023-05-13T01:56:39.276Z,13.70
2023-05-13T01:57:39.275Z,14.90
2023-05-13T01:58:39.247Z,14.70
2023-05-13T01:59:39.229Z,14.90
2023-05-13T02:00:39.220Z,16.40
2023-05-13T02:01:39.278Z,9.60
2023-05-13T02:02:39.321Z,12.90
2023-05-13T02:03:39.355Z,15.70
2023-05-13T02:04:39.169Z,15.90
2023-05-13T02:05:39.183Z,12.80
2023-05-13T02:06:39.178Z,15.90
2023-05-13T02:07:39.149Z,9.60
2023-05-13T02:08:39.139Z,25.70
2023-05-13T02:09:39.124Z,19.30
2023-05-13T02:10:39.132Z,18.10
2023-05-13T02:11:39.121Z,16.10
2023-05-13T02:12:39.088Z,16.70
2023-05-13T02:13:39.092Z,16.20
2023-05-13T02:14:39.072Z,13.40
2023-05-13T02:15:39.085Z,21.70
2023-05-13T02:16:39.097Z,20.60
2023-05-13T02:17:39.103Z,17.00
2023-05-13T02:18:39.062Z,16.70
2023-05-13T02:19:39.027Z,15.10
2023-05-13T02:20:39.026Z,13.60
2023-05-13T02:21:39.010Z,18.50
2023-05-13T02:22:38.988Z,11.20
2023-05-13T02:23:38.980Z,19.70
2023-05-13T02:24:38.987Z,11.60
2023-05-13T02:25:38.982Z,17.30
2023-05-13T02:26:38.942Z,20.10
2023-05-13T02:27:38.937Z,16.90
2023-05-13T02:28:38.939Z,15.90
2023-05-13T02:29:38.930Z,12.40
2023-05-13T02:30:38.897Z,14.10
2023-05-13T02:31:38.954Z,12.90
2023-05-13T02:32:38.917Z,15.20
2023-05-13T02:33:38.878Z,14.70
2023-05-13T02:34:38.893Z,13.10
2023-05-13T02:35:38.853Z,19.90
2023-05-13T02:36:38.842Z,14.00
2023-05-13T02:37:38.824Z,16.40
2023-05-13T02:38:38.838Z,20.30
2023-05-13T02:39:38.831Z,14.90
2023-05-13T02:40:38.799Z,16.00
2023-05-13T02:41:38.789Z,13.20
2023-05-13T02:42:38.777Z,19.00
2023-05-13T02:43:38.784Z,14.10
2023-05-13T02:44:38.759Z,22.40
2023-05-13T02:45:38.791Z,15.70
2023-05-13T02:46:38.727Z,17.10
2023-05-13T02:47:38.790Z,24.60
2023-05-13T02:48:38.758Z,24.50
2023-05-13T02:49:38.701Z,26.40
2023-05-13T02:50:38.690Z,21.30
2023-05-13T02:51:38.680Z,23.80
2023-05-13T02:52:38.696Z,17.70
2023-05-13T02:53:38.674Z,16.00
2023-05-13T02:54:38.738Z,17.50
2023-05-13T02:55:38.644Z,15.60
2023-05-13T02:56:38.640Z,18.10
2023-05-13T02:57:38.637Z,13.00
2023-05-13T02:58:38.615Z,17.40
2023-05-13T02:59:38.600Z,18.50
2023-05-13T03:00:38.603Z,20.10
2023-05-13T03:01:38.660Z,20.40
2023-05-13T03:02:38.663Z,16.40
2023-05-13T03:03:38.648Z,20.40
2023-05-13T03:04:38.559Z,16.50
2023-05-13T03:05:38.542Z,14.10
2023-05-13T03:06:38.540Z,13.80
2023-05-13T03:07:38.534Z,16.40
2023-05-13T03:08:38.538Z,17.00
2023-05-13T03:09:38.493Z,16.70
2023-05-13T03:10:38.481Z,10.70
2023-05-13T03:11:38.497Z,14.50
2023-05-13T03:12:38.457Z,15.60
2023-05-13T03:13:38.449Z,17.90
2023-05-13T03:14:38.441Z,15.10
2023-05-13T03:15:38.475Z,15.20
2023-05-13T03:16:38.583Z,13.50
2023-05-13T03:17:38.406Z,16.90
2023-05-13T03:18:38.402Z,19.20
2023-05-13T03:19:38.387Z,15.10
2023-05-13T03:20:38.388Z,14.10
2023-05-13T03:21:38.387Z,17.20
2023-05-13T03:22:38.353Z,11.50
2023-05-13T03:23:38.351Z,14.60
2023-05-13T03:24:38.335Z,13.20
2023-05-13T03:25:38.337Z,12.40
2023-05-13T03:26:38.303Z,15.60
2023-05-13T03:27:38.288Z,12.10
2023-05-13T03:28:38.292Z,12.10
2023-05-13T03:29:38.275Z,12.30
2023-05-13T03:30:38.286Z,18.10
2023-05-13T03:31:38.277Z,15.20
2023-05-13T03:32:38.276Z,15.50
2023-05-13T03:33:38.191Z,15.20
2023-05-13T03:34:38.184Z,17.20
2023-05-13T03:35:38.171Z,19.30
2023-05-13T03:36:38.146Z,20.10
2023-05-13T03:37:38.187Z,18.80
2023-05-13T03:38:38.178Z,13.20
2023-05-13T03:39:38.182Z,13.80
2023-05-13T03:40:38.165Z,17.90
2023-05-13T03:41:38.144Z,12.20
2023-05-13T03:42:38.143Z,16.00
2023-05-13T03:43:38.128Z,12.90
2023-05-13T03:44:38.130Z,14.10
2023-05-13T03:45:38.101Z,15.40
2023-05-13T03:46:38.078Z,18.00
2023-05-13T03:47:38.095Z,14.10
2023-05-13T03:48:38.089Z,27.60
2023-05-13T03:49:38.082Z,18.80
2023-05-13T03:50:38.053Z,17.50
2023-05-13T03:51:38.043Z,15.70
2023-05-13T03:52:38.033Z,15.10
2023-05-13T03:53:38.033Z,15.50
2023-05-13T03:54:38.023Z,18.90
2023-05-13T03:55:38.004Z,17.10
2023-05-13T03:56:37.992Z,17.20
2023-05-13T03:57:37.983Z,16.40
2023-05-13T03:58:37.994Z,18.10
2023-05-13T03:59:37.949Z,14.00
2023-05-13T04:00:37.918Z,15.10
2023-05-13T04:01:37.879Z,16.90
2023-05-13T04:02:38.044Z,17.40
2023-05-13T04:03:37.885Z,11.70
2023-05-13T04:04:37.876Z,12.00
2023-05-13T04:05:37.859Z,17.10
2023-05-13T04:06:37.829Z,14.40
2023-05-13T04:07:37.841Z,16.70
2023-05-13T04:08:37.810Z,15.20
2023-05-13T04:09:37.799Z,16.20
2023-05-13T04:10:37.786Z,16.30
2023-05-13T04:11:37.770Z,13.10
2023-05-13T04:12:37.783Z,17.10
2023-05-13T04:13:37.751Z,18.60
2023-05-13T04:14:37.745Z,18.60
2023-05-13T04:15:37.728Z,16.00
2023-05-13T04:16:37.793Z,15.50
2023-05-13T04:17:37.781Z,18.90
2023-05-13T04:18:37.744Z,12.60
2023-05-13T04:19:37.682Z,13.80
2023-05-13T04:20:37.745Z,18.60
2023-05-13T04:21:37.696Z,18.00
2023-05-13T04:22:37.695Z,14.40
2023-05-13T04:23:37.664Z,11.90
2023-05-13T04:24:37.665Z,17.60
2023-05-13T04:25:37.764Z,14.50
2023-05-13T04:26:37.651Z,14.60
2023-05-13T04:27:37.616Z,15.20
2023-05-13T04:28:37.628Z,14.50
2023-05-13T04:29:37.585Z,17.60
2023-05-13T04:30:37.593Z,13.80
2023-05-13T04:31:37.618Z,15.60
2023-05-13T04:32:37.617Z,15.50
2023-05-13T04:33:37.559Z,13.50
2023-05-13T04:34:37.535Z,21.90
2023-05-13T04:35:37.538Z,14.80
2023-05-13T04:36:37.518Z,15.80
2023-05-13T04:37:37.518Z,18.40
2023-05-13T04:38:37.491Z,13.40
2023-05-13T04:39:37.476Z,16.70
2023-05-13T04:40:37.492Z,14.60
2023-05-13T04:41:37.463Z,11.30
2023-05-13T04:42:37.462Z,12.30
2023-05-13T04:43:37.436Z,12.90
2023-05-13T04:44:37.445Z,18.10
2023-05-13T04:45:37.427Z,15.90
2023-05-13T04:46:37.488Z,11.80
2023-05-13T04:47:37.466Z,12.20
2023-05-13T04:48:37.384Z,19.10
2023-05-13T04:49:37.386Z,19.50
2023-05-13T04:50:37.367Z,12.80
2023-05-13T04:51:37.368Z,15.60
2023-05-13T04:52:37.378Z,14.40
2023-05-13T04:53:37.329Z,19.80
2023-05-13T04:54:37.349Z,13.30
2023-05-13T04:55:37.327Z,20.50
2023-05-13T04:56:37.301Z,13.60
2023-05-13T04:57:37.288Z,14.40
2023-05-13T04:58:37.292Z,14.10
2023-05-13T04:59:37.285Z,10.90
2023-05-13T05:00:37.265Z,20.40
2023-05-13T05:01:37.275Z,17.00
2023-05-13T05:02:37.283Z,12.50
2023-05-13T05:03:37.287Z,13.00
2023-05-13T05:04:37.232Z,15.10
2023-05-13T05:05:37.197Z,17.30
2023-05-13T05:06:37.192Z,11.50
2023-05-13T05:07:37.192Z,12.60
2023-05-13T05:08:37.206Z,11.60
2023-05-13T05:09:37.276Z,12.80
2023-05-13T05:10:37.168Z,12.80
2023-05-13T05:11:37.144Z,16.00
2023-05-13T05:12:37.148Z,16.10
2023-05-13T05:13:37.157Z,9.00
2023-05-13T05:14:37.110Z,10.10
2023-05-13T05:15:37.118Z,11.00
2023-05-13T05:16:37.097Z,12.40
2023-05-13T05:17:37.216Z,17.00
2023-05-13T05:18:37.158Z,14.20
2023-05-13T05:19:37.063Z,15.30
2023-05-13T05:20:37.052Z,16.50
2023-05-13T05:21:37.050Z,14.50
2023-05-13T05:22:37.058Z,20.00
2023-05-13T05:23:37.016Z,19.60
2023-05-13T05:24:37.003Z,13.10
2023-05-13T05:25:36.987Z,13.30
2023-05-13T05:26:37.007Z,15.70
2023-05-13T05:27:36.986Z,15.10
2023-05-13T05:28:36.966Z,12.80
2023-05-13T05:29:36.943Z,12.30
2023-05-13T05:30:36.942Z,19.90
2023-05-13T05:31:36.997Z,20.00
2023-05-13T05:32:36.980Z,13.80
2023-05-13T05:33:36.908Z,11.20
2023-05-13T05:34:36.899Z,20.50
2023-05-13T05:35:36.882Z,13.70
2023-05-13T05:36:38.378Z,17.10
2023-05-13T05:37:36.863Z,16.20
2023-05-13T05:38:36.860Z,11.60
2023-05-13T05:39:36.842Z,13.10
2023-05-13T05:40:36.858Z,13.40
2023-05-13T05:41:36.857Z,15.50
2023-05-13T05:42:36.821Z,13.10
2023-05-13T05:43:36.802Z,25.00
2023-05-13T05:44:36.798Z,16.40
2023-05-13T05:45:36.809Z,13.30
2023-05-13T05:46:36.775Z,20.20
2023-05-13T05:47:36.792Z,19.00
2023-05-13T05:48:36.756Z,19.30
2023-05-13T05:49:36.753Z,15.00
2023-05-13T05:50:36.760Z,15.60
2023-05-13T05:51:36.712Z,15.90
2023-05-13T05:52:36.702Z,14.70
2023-05-13T05:53:36.690Z,16.20
2023-05-13T05:54:36.702Z,12.80
2023-05-13T05:55:36.667Z,17.30
2023-05-13T05:56:36.665Z,16.50
2023-05-13T05:57:36.647Z,19.30
2023-05-13T05:58:36.637Z,14.20
2023-05-13T05:59:36.640Z,15.70
2023-05-13T06:00:36.622Z,14.90
2023-05-13T06:01:36.678Z,18.40
2023-05-13T06:02:36.663Z,16.90
2023-05-13T06:03:36.738Z,15.10
2023-05-13T06:04:36.654Z,14.30
2023-05-13T06:05:36.561Z,20.20
2023-05-13T06:06:36.592Z,12.50
2023-05-13T06:07:36.545Z,18.30
2023-05-13T06:08:36.562Z,15.20
2023-05-13T06:09:36.514Z,18.80
2023-05-13T06:10:36.513Z,14.60
2023-05-13T06:11:36.500Z,12.90
2023-05-13T06:12:36.487Z,23.60
2023-05-13T06:13:36.490Z,17.40
2023-05-13T06:14:36.469Z,14.90
2023-05-13T06:15:36.514Z,23.30
2023-05-13T06:16:36.506Z,24.70
2023-05-13T06:17:36.443Z,11.90
2023-05-13T06:18:36.503Z,27.90
2023-05-13T06:19:36.410Z,15.10
2023-05-13T06:20:36.408Z,16.30
2023-05-13T06:21:36.389Z,13.60
2023-05-13T06:22:36.402Z,18.10
2023-05-13T06:23:36.395Z,14.50
2023-05-13T06:24:36.362Z,18.60
2023-05-13T06:25:36.340Z,14.00
2023-05-13T06:26:36.334Z,13.90
2023-05-13T06:27:36.341Z,19.90
2023-05-13T06:28:36.321Z,9.50
2023-05-13T06:29:36.318Z,14.60
2023-05-13T06:30:36.304Z,19.60
2023-05-13T06:31:36.313Z,17.80
2023-05-13T06:32:36.430Z,16.90
2023-05-13T06:33:36.301Z,14.30
2023-05-13T06:34:36.259Z,15.70
2023-05-13T06:35:36.239Z,13.30
2023-05-13T06:36:36.267Z,20.40
2023-05-13T06:37:36.239Z,14.40
2023-05-13T06:38:36.215Z,11.20
2023-05-13T06:39:36.199Z,14.10
2023-05-13T06:40:36.191Z,11.60
2023-05-13T06:41:36.200Z,22.70
2023-05-13T06:42:36.183Z,19.40
2023-05-13T06:43:36.169Z,14.40
2023-05-13T06:44:36.155Z,13.20
2023-05-13T06:45:36.162Z,14.30
2023-05-13T06:46:36.166Z,16.10
2023-05-13T06:47:36.176Z,20.80
2023-05-13T06:48:36.111Z,19.30
2023-05-13T06:49:36.100Z,19.80
2023-05-13T06:50:36.109Z,12.10
2023-05-13T06:51:36.085Z,13.40
2023-05-13T06:52:36.064Z,15.30
2023-05-13T06:53:36.046Z,15.00
2023-05-13T06:54:36.083Z,15.90
2023-05-13T06:55:36.053Z,11.70
2023-05-13T06:56:36.034Z,18.00
2023-05-13T06:57:42.424Z,18.50
2023-05-13T06:58:37.007Z,11.30
2023-05-13T06:59:36.017Z,22.00
2023-05-13T07:00:35.994Z,16.70
2023-05-13T07:01:36.099Z,20.00
2023-05-13T07:02:36.026Z,13.20
2023-05-13T07:03:35.985Z,23.30
2023-05-13T07:04:35.950Z,16.40
2023-05-13T07:05:35.924Z,17.90
2023-05-13T07:06:35.942Z,17.30
2023-05-13T07:07:35.900Z,14.40
2023-05-13T07:08:35.899Z,10.50
2023-05-13T07:09:35.918Z,19.30
2023-05-13T07:10:35.880Z,18.00
2023-05-13T07:11:35.863Z,15.70
2023-05-13T07:12:35.852Z,16.30
2023-05-13T07:13:35.846Z,11.50
2023-05-13T07:14:35.855Z,19.40
2023-05-13T07:15:35.818Z,15.20
2023-05-13T07:16:35.806Z,23.60
2023-05-13T07:17:36.002Z,11.00
2023-05-13T07:18:35.862Z,12.90
2023-05-13T07:19:35.797Z,15.80
2023-05-13T07:20:35.774Z,17.30
2023-05-13T07:21:35.780Z,17.80
2023-05-13T07:22:35.745Z,13.70
2023-05-13T07:23:35.754Z,22.70
2023-05-13T07:24:35.727Z,15.80
2023-05-13T07:25:35.714Z,19.50
2023-05-13T07:26:35.717Z,11.10
2023-05-13T07:27:35.699Z,17.70
2023-05-13T07:28:35.703Z,12.70
2023-05-13T07:29:35.674Z,16.80
2023-05-13T07:30:35.665Z,17.30
2023-05-13T07:31:35.653Z,18.00
2023-05-13T07:32:35.676Z,9.70
2023-05-13T07:33:35.635Z,13.70
2023-05-13T07:34:35.620Z,17.70
2023-05-13T07:35:35.607Z,9.40
2023-05-13T07:36:35.596Z,13.20
2023-05-13T07:37:35.600Z,16.40
2023-05-13T07:38:35.579Z,11.30
2023-05-13T07:39:35.555Z,15.70
2023-05-13T07:40:35.569Z,15.00
2023-05-13T07:41:35.560Z,17.70
2023-05-13T07:42:35.563Z,11.30
2023-05-13T07:43:35.528Z,10.20
2023-05-13T07:44:35.522Z,16.50
2023-05-13T07:45:35.501Z,12.60
2023-05-13T07:46:35.549Z,14.70
2023-05-13T07:47:35.535Z,13.50
2023-05-13T07:48:35.479Z,15.70
2023-05-13T07:49:35.473Z,12.30
2023-05-13T07:50:35.441Z,16.30
2023-05-13T07:51:35.496Z,12.10
2023-05-13T07:52:35.416Z,14.90
2023-05-13T07:53:35.423Z,16.70
2023-05-13T07:54:35.410Z,16.10
2023-05-13T07:55:35.433Z,14.20
2023-05-13T07:56:35.399Z,13.10
2023-05-13T07:57:35.374Z,13.50
2023-05-13T07:58:35.390Z,14.40
2023-05-13T07:59:35.354Z,18.90
2023-05-13T08:00:35.351Z,11.30
2023-05-13T08:01:35.332Z,16.70
2023-05-13T08:02:35.454Z,16.50
2023-05-13T08:03:35.418Z,17.50
2023-05-13T08:04:35.351Z,15.20
2023-05-13T08:05:35.308Z,18.90
2023-05-13T08:06:35.282Z,13.20
2023-05-13T08:07:35.276Z,9.60
2023-05-13T08:08:35.256Z,13.70
2023-05-13T08:09:35.282Z,10.80
2023-05-13T08:10:35.248Z,16.50
2023-05-13T08:11:35.227Z,14.70
2023-05-13T08:12:35.219Z,14.60
2023-05-13T08:13:35.217Z,23.80
2023-05-13T08:14:35.212Z,13.20
2023-05-13T08:15:35.187Z,12.20
2023-05-13T08:16:35.219Z,14.60
2023-05-13T08:17:35.254Z,13.90
2023-05-13T08:18:35.200Z,10.90
2023-05-13T08:19:35.161Z,16.10
2023-05-13T08:20:35.131Z,11.80
2023-05-13T08:21:35.130Z,20.20
2023-05-13T08:22:35.113Z,18.30
2023-05-13T08:23:44.798Z,15.90
2023-05-13T08:24:36.100Z,8.30
2023-05-13T08:25:35.090Z,10.60
2023-05-13T08:26:35.086Z,14.30
2023-05-13T08:27:35.057Z,16.10
2023-05-13T08:28:35.066Z,13.60
2023-05-13T08:29:35.049Z,11.20
2023-05-13T08:30:35.030Z,16.80
2023-05-13T08:31:35.032Z,13.50
2023-05-13T08:32:35.014Z,15.60
2023-05-13T08:33:35.007Z,15.40
2023-05-13T08:34:34.976Z,14.20
2023-05-13T08:35:34.979Z,13.60
2023-05-13T08:36:34.969Z,15.30
2023-05-13T08:37:34.961Z,15.90
2023-05-13T08:38:34.966Z,16.10
2023-05-13T08:39:34.941Z,17.30
2023-05-13T08:40:34.917Z,13.10
2023-05-13T08:41:34.923Z,13.40
2023-05-13T08:42:34.908Z,10.80
2023-05-13T08:43:34.905Z,14.90
2023-05-13T08:44:34.900Z,11.70
2023-05-13T08:45:34.874Z,14.70
2023-05-13T08:46:35.059Z,10.50
2023-05-13T08:47:36.799Z,14.00
2023-05-13T08:48:34.830Z,15.70
2023-05-13T08:49:34.826Z,9.80
2023-05-13T08:50:34.836Z,13.90
2023-05-13T08:51:34.826Z,12.20
2023-05-13T08:52:35.085Z,12.70
2023-05-13T08:53:34.794Z,11.90
2023-05-13T08:54:34.782Z,22.60
2023-05-13T08:55:34.771Z,14.40
2023-05-13T08:56:34.767Z,20.60
2023-05-13T08:57:34.757Z,12.30
2023-05-13T08:58:34.740Z,12.30
2023-05-13T08:59:34.723Z,13.70
2023-05-13T09:00:34.735Z,11.60
2023-05-13T09:01:34.776Z,16.30
2023-05-13T09:02:34.789Z,16.10
2023-05-13T09:03:34.672Z,13.60
2023-05-13T09:04:34.671Z,11.60
2023-05-13T09:05:35.742Z,9.30
2023-05-13T09:06:34.696Z,12.40
2023-05-13T09:07:34.639Z,10.90
2023-05-13T09:08:34.621Z,12.10
2023-05-13T09:09:34.624Z,10.00
2023-05-13T09:10:34.616Z,13.40
2023-05-13T09:11:34.614Z,12.50
2023-05-13T09:12:34.577Z,15.10
2023-05-13T09:13:34.569Z,17.00
2023-05-13T09:14:34.571Z,8.10
2023-05-13T09:15:34.615Z,11.00
2023-05-13T09:16:34.615Z,13.20
2023-05-13T09:17:34.571Z,17.40
2023-05-13T09:18:34.709Z,11.20
2023-05-13T09:19:34.671Z,11.10
2023-05-13T09:20:34.507Z,11.10
2023-05-13T09:21:34.505Z,8.60
2023-05-13T09:22:34.478Z,14.50
2023-05-13T09:23:34.470Z,8.60
2023-05-13T09:24:34.491Z,17.10
2023-05-13T09:25:34.462Z,12.20
2023-05-13T09:26:34.427Z,10.10
2023-05-13T09:27:34.424Z,9.00
2023-05-13T09:28:34.412Z,22.60
2023-05-13T09:29:34.420Z,11.10
2023-05-13T09:30:34.388Z,14.60
2023-05-13T09:31:34.434Z,17.00
2023-05-13T09:32:34.419Z,15.70
2023-05-13T09:33:34.360Z,10.60
2023-05-13T09:34:34.390Z,15.60
2023-05-13T09:35:34.350Z,14.20
2023-05-13T09:36:34.323Z,11.10
2023-05-13T09:37:34.312Z,15.00
2023-05-13T09:38:34.322Z,13.30
2023-05-13T09:39:34.391Z,14.60
2023-05-13T09:40:34.289Z,11.80
2023-05-13T09:41:34.272Z,11.00
2023-05-13T09:42:34.259Z,12.20
2023-05-13T09:43:34.282Z,19.50
2023-05-13T09:44:34.248Z,18.10
2023-05-13T09:45:34.239Z,15.60
2023-05-13T09:46:34.247Z,8.20
2023-05-13T09:47:34.240Z,9.70
2023-05-13T09:48:34.326Z,11.90
2023-05-13T09:49:34.190Z,11.80
2023-05-13T09:50:34.174Z,10.90
2023-05-13T09:51:34.176Z,15.90
2023-05-13T09:52:34.173Z,16.50
2023-05-13T09:53:34.167Z,13.90
2023-05-13T09:54:34.129Z,16.90
2023-05-13T09:55:34.132Z,15.00
2023-05-13T09:56:34.123Z,10.20
2023-05-13T09:57:34.135Z,18.60
2023-05-13T09:58:34.093Z,16.80
2023-05-13T09:59:34.094Z,15.20
2023-05-13T10:00:36.010Z,11.10
2023-05-13T10:01:34.083Z,8.60
2023-05-13T10:02:34.079Z,12.30
2023-05-13T10:03:34.075Z,18.30
2023-05-13T10:04:34.035Z,19.50
2023-05-13T10:05:34.040Z,14.10
2023-05-13T10:06:34.038Z,8.90
2023-05-13T10:07:34.035Z,21.30
2023-05-13T10:08:34.002Z,13.90
2023-05-13T10:09:33.994Z,11.80
2023-05-13T10:10:33.978Z,9.00
2023-05-13T10:11:33.990Z,13.70
2023-05-13T10:12:33.968Z,21.80
2023-05-13T10:13:33.978Z,15.20
2023-05-13T10:14:33.935Z,14.30
2023-05-13T10:15:33.956Z,9.10
2023-05-13T10:16:33.994Z,12.50
2023-05-13T10:17:33.933Z,12.80
2023-05-13T10:18:33.931Z,17.80
2023-05-13T10:19:33.893Z,11.00
2023-05-13T10:20:33.891Z,14.50
2023-05-13T10:21:33.891Z,8.60
2023-05-13T10:22:33.866Z,11.80
2023-05-13T10:23:33.867Z,16.20
2023-05-13T10:24:33.843Z,14.10
2023-05-13T10:25:33.875Z,12.20
2023-05-13T10:26:33.817Z,13.70
2023-05-13T10:27:33.825Z,9.70
2023-05-13T10:28:33.793Z,6.20
2023-05-13T10:29:33.793Z,19.40
2023-05-13T10:30:33.797Z,14.90
2023-05-13T10:31:33.772Z,18.70
2023-05-13T10:32:33.811Z,8.50
2023-05-13T10:33:33.743Z,14.40
2023-05-13T10:34:33.774Z,13.20
2023-05-13T10:35:36.715Z,13.00
2023-05-13T10:36:33.715Z,18.70
2023-05-13T10:37:33.713Z,11.60
2023-05-13T10:38:33.690Z,14.00
2023-05-13T10:39:33.700Z,12.00
2023-05-13T10:40:33.665Z,14.70
2023-05-13T10:41:33.665Z,14.20
2023-05-13T10:42:33.647Z,10.90
2023-05-13T10:43:33.646Z,8.40
2023-05-13T10:44:33.650Z,12.60
2023-05-13T10:45:33.632Z,10.90
2023-05-13T10:46:33.631Z,9.20
2023-05-13T10:47:33.863Z,28.70
2023-05-13T10:48:33.623Z,17.20
2023-05-13T10:49:33.635Z,12.60
2023-05-13T10:50:33.569Z,13.30
2023-05-13T10:51:33.565Z,15.50
2023-05-13T10:52:33.574Z,20.00
2023-05-13T10:53:33.568Z,14.70
2023-05-13T10:54:33.533Z,14.30
2023-05-13T10:55:33.528Z,12.70
2023-05-13T10:56:33.509Z,7.20
2023-05-13T10:57:33.502Z,11.00
2023-05-13T10:58:33.504Z,12.10
2023-05-13T10:59:33.478Z,10.30
2023-05-13T11:00:33.476Z,26.20
2023-05-13T11:01:33.474Z,10.20
2023-05-13T11:02:33.497Z,12.80
2023-05-13T11:03:33.643Z,15.40
2023-05-13T11:04:33.417Z,9.50
2023-05-13T11:05:33.423Z,14.10
2023-05-13T11:06:33.399Z,9.10
2023-05-13T11:07:33.413Z,13.30
2023-05-13T11:08:33.386Z,10.40
2023-05-13T11:09:33.385Z,8.00
2023-05-13T11:10:33.509Z,7.50
2023-05-13T11:11:33.396Z,10.70
2023-05-13T11:12:33.369Z,10.00
2023-05-13T11:13:33.335Z,10.20
2023-05-13T11:14:33.323Z,11.40
2023-05-13T11:15:33.317Z,11.80
2023-05-13T11:16:33.348Z,12.60
2023-05-13T11:17:33.338Z,7.20
2023-05-13T11:18:33.304Z,10.60
2023-05-13T11:19:33.301Z,12.20
2023-05-13T11:20:42.468Z,9.80
2023-05-13T11:21:34.301Z,11.40
2023-05-13T11:22:33.240Z,8.10
2023-05-13T11:23:33.238Z,11.40
2023-05-13T11:24:33.226Z,13.00
2023-05-13T11:25:33.217Z,12.00
2023-05-13T11:26:33.221Z,12.20
2023-05-13T11:27:33.189Z,8.10
2023-05-13T11:28:33.181Z,11.40
2023-05-13T11:29:33.190Z,11.30
2023-05-13T11:30:33.172Z,7.90
2023-05-13T11:31:33.197Z,8.30
2023-05-13T11:32:33.162Z,13.40
2023-05-13T11:33:33.133Z,8.90
2023-05-13T11:34:33.119Z,6.80
2023-05-13T11:35:33.135Z,6.30
2023-05-13T11:36:33.093Z,9.60
2023-05-13T11:37:33.087Z,8.10
2023-05-13T11:38:33.078Z,5.80
2023-05-13T11:39:33.207Z,10.40
2023-05-13T11:40:33.080Z,10.70
2023-05-13T11:41:33.072Z,5.10
2023-05-13T11:42:33.029Z,15.90
2023-05-13T11:43:34.610Z,12.80
2023-05-13T11:44:33.067Z,15.90
2023-05-13T11:45:33.054Z,13.60
2023-05-13T11:46:32.986Z,6.90
2023-05-13T11:47:33.042Z,6.00
2023-05-13T11:48:32.964Z,11.90
2023-05-13T11:49:32.987Z,13.90
2023-05-13T11:50:32.984Z,14.40
2023-05-13T11:51:32.939Z,12.20
2023-05-13T11:52:32.919Z,10.20
2023-05-13T11:53:32.916Z,16.60
2023-05-13T11:54:32.930Z,12.30
2023-05-13T11:55:32.892Z,12.50
2023-05-13T11:56:32.873Z,10.70
2023-05-13T11:57:32.981Z,11.70
2023-05-13T11:58:32.875Z,9.90
2023-05-13T11:59:41.783Z,10.20
2023-05-13T12:00:33.854Z,14.70
2023-05-13T12:01:32.839Z,24.40
2023-05-13T12:02:32.874Z,29.90
2023-05-13T12:03:32.861Z,23.80
2023-05-13T12:04:32.804Z,15.90
2023-05-13T12:05:32.825Z,17.00
2023-05-13T12:06:32.782Z,17.40
2023-05-13T12:07:32.777Z,14.10
2023-05-13T12:08:32.777Z,16.10
2023-05-13T12:09:32.745Z,12.90
2023-05-13T12:10:32.735Z,20.50
2023-05-13T12:11:32.731Z,15.00
2023-05-13T12:12:32.782Z,14.60
2023-05-13T12:13:32.726Z,11.00
2023-05-13T12:14:32.703Z,10.30
2023-05-13T12:15:32.697Z,10.40
2023-05-13T12:16:32.792Z,13.00
2023-05-13T12:17:32.694Z,18.40
2023-05-13T12:18:32.685Z,10.60
2023-05-13T12:19:32.645Z,11.50
2023-05-13T12:20:32.799Z,11.20
2023-05-13T12:21:32.628Z,19.90
2023-05-13T12:22:32.633Z,77.30
2023-05-13T12:23:32.604Z,170.70
2023-05-13T12:24:32.601Z,183.30
2023-05-13T12:25:32.587Z,132.10
2023-05-13T12:26:32.595Z,104.30
2023-05-13T12:27:32.580Z,49.80
2023-05-13T12:28:32.565Z,38.60
2023-05-13T12:29:32.554Z,55.50
2023-05-13T12:30:32.544Z,53.80
2023-05-13T12:31:32.625Z,34.50
2023-05-13T12:32:32.536Z,20.90
2023-05-13T12:33:32.515Z,33.90
2023-05-13T12:34:32.520Z,19.20
2023-05-13T12:35:32.470Z,14.70
2023-05-13T12:36:32.532Z,9.80
2023-05-13T12:37:32.451Z,8.30
2023-05-13T12:38:32.444Z,11.00
2023-05-13T12:39:32.435Z,12.50
2023-05-13T12:40:32.455Z,9.10
2023-05-13T12:41:32.464Z,10.20
2023-05-13T12:42:32.439Z,13.20
2023-05-13T12:43:32.395Z,9.10
2023-05-13T12:44:32.388Z,14.40
2023-05-13T12:45:32.422Z,9.10
2023-05-13T12:46:32.393Z,26.50
2023-05-13T12:47:32.413Z,156.00
2023-05-13T12:48:32.340Z,420.00
2023-05-13T12:49:32.340Z,377.80
2023-05-13T12:50:32.349Z,352.50
2023-05-13T12:51:32.309Z,329.00
2023-05-13T12:52:32.323Z,277.50
2023-05-13T12:53:32.302Z,177.30
2023-05-13T12:54:32.308Z,122.60